Time;durP1;ratioP1;P1;durP2;ratioP2;P2;SDS_P1;SDS_P2;PMS_P1;PMS_P2;Temp;Humidity;BMP_temperature;BMP_pressure;BME280_temperature;BME280_humidity;BME280_pressure;Samples;Min_cycle;Max_cycle;Signal;HPM_P1;HPM_P2
2021/06/07 00:00:16;;;;;;;2.93;1.53;;;;;;;;;;5059713;28;20292;-71
2021/06/07 00:02:41;;;;;;;2.45;1.58;;;;;;;;;;5061985;28;20203;-71
2021/06/07 00:05:06;;;;;;;1.80;1.63;;;;;;;;;;5058537;28;20570;-72
2021/06/07 00:07:32;;;;;;;2.75;2.10;;;;;;;;;;5056144;28;20193;-72
2021/06/07 00:09:57;;;;;;;3.23;2.00;;;;;;;;;;5064536;28;20183;-72
2021/06/07 00:12:22;;;;;;;3.20;2.70;;;;;;;;;;5062449;28;20256;-72
2021/06/07 00:14:47;;;;;;;3.47;2.50;;;;;;;;;;5061560;28;20199;-72
2021/06/07 00:17:12;;;;;;;2.85;1.90;;;;;;;;;;5062209;28;20658;-71
2021/06/07 00:19:38;;;;;;;2.70;2.50;;;;;;;;;;5068490;28;20216;-72
2021/06/07 00:22:04;;;;;;;2.30;1.98;;;;;;;;;;5061053;28;20700;-70
2021/06/07 00:24:29;;;;;;;2.90;2.53;;;;;;;;;;5060953;28;20236;-70
2021/06/07 00:26:56;;;;;;;4.17;2.67;;;;;;;;;;5060969;28;20685;-71
2021/06/07 00:29:21;;;;;;;2.70;2.47;;;;;;;;;;5066055;28;20682;-70
2021/06/07 00:31:46;;;;;;;2.53;2.03;;;;;;;;;;5066161;28;20181;-71
2021/06/07 00:34:12;;;;;;;2.57;2.37;;;;;;;;;;5064035;28;20761;-70
2021/06/07 00:36:38;;;;;;;2.70;2.13;;;;;;;;;;5059207;28;20180;-71
2021/06/07 00:39:05;;;;;;;2.40;2.20;;;;;;;;;;5070114;28;20212;-71
2021/06/07 00:41:30;;;;;;;3.53;2.13;;;;;;;;;;5066866;28;20196;-71
2021/06/07 00:44:00;;;;;;;2.43;2.23;;;;;;;;;;5065505;28;20284;-71
2021/06/07 00:46:26;;;;;;;2.50;2.30;;;;;;;;;;5066556;28;20198;-71
2021/06/07 00:48:52;;;;;;;2.50;1.93;;;;;;;;;;5058423;28;20667;-71
2021/06/07 00:51:17;;;;;;;3.40;2.60;;;;;;;;;;5058926;28;20626;-72
2021/06/07 00:53:42;;;;;;;2.93;2.27;;;;;;;;;;5058975;28;20189;-71
2021/06/07 00:56:09;;;;;;;2.40;2.20;;;;;;;;;;5060389;28;20208;-71
2021/06/07 00:58:39;;;;;;;3.13;2.30;;;;;;;;;;5060964;28;20177;-72
2021/06/07 01:01:06;;;;;;;3.93;2.77;;;;;;;;;;5059138;28;20263;-71
2021/06/07 01:03:31;;;;;;;3.83;2.93;;;;;;;;;;5057861;28;20280;-71
2021/06/07 01:05:57;;;;;;;3.93;2.47;;;;;;;;;;5063441;28;20642;-71
2021/06/07 01:08:23;;;;;;;2.90;2.40;;;;;;;;;;5057791;28;20178;-71
2021/06/07 01:10:48;;;;;;;3.17;2.40;;;;;;;;;;5052567;28;20659;-71
2021/06/07 01:13:14;;;;;;;2.20;1.97;;;;;;;;;;5063314;28;20205;-71
2021/06/07 01:15:40;;;;;;;2.50;2.30;;;;;;;;;;5065900;28;20635;-71
2021/06/07 01:18:05;;;;;;;3.07;2.77;;;;;;;;;;5067356;28;20197;-72
2021/06/07 01:20:30;;;;;;;4.37;3.40;;;;;;;;;;5065310;28;20285;-73
2021/06/07 01:22:56;;;;;;;2.73;2.53;;;;;;;;;;5065249;28;20232;-72
2021/06/07 01:25:26;;;;;;;3.17;2.87;;;;;;;;;;5059163;28;20182;-71
2021/06/07 01:27:53;;;;;;;3.23;2.97;;;;;;;;;;5059429;28;20185;-72
2021/06/07 01:30:20;;;;;;;2.70;2.50;;;;;;;;;;5065720;28;20193;-71
2021/06/07 01:32:45;;;;;;;3.23;2.90;;;;;;;;;;5061764;28;20204;-71
2021/06/07 01:35:12;;;;;;;2.87;2.67;;;;;;;;;;5061056;28;20531;-72
2021/06/07 01:37:37;;;;;;;2.70;2.50;;;;;;;;;;5065536;28;20195;-71
2021/06/07 01:40:05;;;;;;;4.53;2.67;;;;;;;;;;5064198;28;20385;-71
2021/06/07 01:42:30;;;;;;;3.43;2.80;;;;;;;;;;5062854;28;20194;-71
2021/06/07 01:44:55;;;;;;;3.87;3.43;;;;;;;;;;5063386;28;20189;-71
2021/06/07 01:47:20;;;;;;;2.93;2.73;;;;;;;;;;5062550;28;20222;-71
2021/06/07 01:49:47;;;;;;;2.93;2.70;;;;;;;;;;5067008;28;20184;-71
2021/06/07 01:52:12;;;;;;;2.93;2.63;;;;;;;;;;5059335;28;20659;-71
2021/06/07 01:54:38;;;;;;;5.50;3.10;;;;;;;;;;5059085;28;20202;-71
2021/06/07 01:57:04;;;;;;;3.90;3.00;;;;;;;;;;5066434;28;20169;-71
2021/06/07 01:59:29;;;;;;;3.40;3.00;;;;;;;;;;5060156;28;20197;-71
2021/06/07 02:01:54;;;;;;;5.67;3.30;;;;;;;;;;5064781;28;20634;-71
2021/06/07 02:04:20;;;;;;;4.73;2.93;;;;;;;;;;5060737;28;20201;-71
2021/06/07 02:06:45;;;;;;;3.60;3.30;;;;;;;;;;5060296;28;20188;-71
2021/06/07 02:09:10;;;;;;;5.40;3.50;;;;;;;;;;5060670;28;20234;-71
2021/06/07 02:11:36;;;;;;;3.50;3.20;;;;;;;;;;5063522;28;20244;-71
2021/06/07 02:14:03;;;;;;;3.87;2.97;;;;;;;;;;5061465;28;20627;-70
2021/06/07 02:16:30;;;;;;;3.37;2.90;;;;;;;;;;5066667;28;20177;-71
2021/06/07 02:18:56;;;;;;;4.47;3.37;;;;;;;;;;5062354;28;20188;-71
2021/06/07 02:21:22;;;;;;;4.10;3.70;;;;;;;;;;5065781;28;20180;-71
2021/06/07 02:23:47;;;;;;;5.67;3.60;;;;;;;;;;5066104;28;20561;-71
2021/06/07 02:26:13;;;;;;;4.37;3.67;;;;;;;;;;5056471;28;20178;-71
2021/06/07 02:28:38;;;;;;;3.53;3.00;;;;;;;;;;5060818;28;20219;-72
2021/06/07 02:31:04;;;;;;;4.60;4.23;;;;;;;;;;5065452;28;20181;-71
2021/06/07 02:33:29;;;;;;;4.30;3.87;;;;;;;;;;5059130;28;20204;-71
2021/06/07 02:35:54;;;;;;;4.40;4.00;;;;;;;;;;5064907;28;20173;-71
2021/06/07 02:38:20;;;;;;;4.03;3.50;;;;;;;;;;5057992;28;20192;-71
2021/06/07 02:40:47;;;;;;;3.70;3.33;;;;;;;;;;5064770;28;20587;-71
2021/06/07 02:43:12;;;;;;;4.73;3.53;;;;;;;;;;5065865;28;20263;-71
2021/06/07 02:45:37;;;;;;;3.57;3.10;;;;;;;;;;5066421;28;20176;-71
2021/06/07 02:48:03;;;;;;;5.37;3.60;;;;;;;;;;5064662;28;20208;-72
2021/06/07 02:50:30;;;;;;;4.67;4.27;;;;;;;;;;5060048;28;20191;-72
2021/06/07 02:52:56;;;;;;;5.03;3.10;;;;;;;;;;5058020;28;20200;-72
2021/06/07 02:55:25;;;;;;;3.90;3.40;;;;;;;;;;5056524;28;20207;-72
2021/06/07 02:57:51;;;;;;;5.00;3.40;;;;;;;;;;5058258;28;20503;-72
2021/06/07 03:00:24;;;;;;;5.03;3.40;;;;;;;;;;5054984;28;20246;-71
2021/06/07 03:02:49;;;;;;;4.30;3.53;;;;;;;;;;5056311;28;20204;-71
2021/06/07 03:05:14;;;;;;;4.03;3.63;;;;;;;;;;5056252;28;20169;-72
2021/06/07 03:07:39;;;;;;;4.53;4.13;;;;;;;;;;5055441;28;20259;-72
2021/06/07 03:10:06;;;;;;;5.00;3.77;;;;;;;;;;5071330;28;20184;-72
2021/06/07 03:12:31;;;;;;;3.80;3.50;;;;;;;;;;5058412;28;20185;-71
2021/06/07 03:14:56;;;;;;;5.53;4.40;;;;;;;;;;5055522;28;20603;-72
2021/06/07 03:17:21;;;;;;;4.03;3.67;;;;;;;;;;5062321;28;20201;-73
2021/06/07 03:19:47;;;;;;;4.67;3.97;;;;;;;;;;5065215;28;20209;-71
2021/06/07 03:22:13;;;;;;;4.47;4.07;;;;;;;;;;5059195;28;20180;-71
2021/06/07 03:24:38;;;;;;;6.30;4.20;;;;;;;;;;5051538;28;20193;-71
2021/06/07 03:27:03;;;;;;;5.10;4.53;;;;;;;;;;5050922;28;20174;-72
2021/06/07 03:29:29;;;;;;;4.50;3.73;;;;;;;;;;5056947;28;20185;-72
2021/06/07 03:31:54;;;;;;;5.57;4.07;;;;;;;;;;5068307;28;20195;-72
2021/06/07 03:34:19;;;;;;;6.07;5.40;;;;;;;;;;5064481;28;20220;-71
2021/06/07 03:36:44;;;;;;;7.83;4.47;;;;;;;;;;5070825;28;20216;-72
2021/06/07 03:39:09;;;;;;;5.97;5.23;;;;;;;;;;5055476;28;20808;-71
2021/06/07 03:41:34;;;;;;;4.90;4.50;;;;;;;;;;5070158;28;20181;-72
2021/06/07 03:43:59;;;;;;;6.57;4.47;;;;;;;;;;5059966;28;20211;-71
2021/06/07 03:46:25;;;;;;;5.43;4.83;;;;;;;;;;5063259;28;20180;-72
2021/06/07 03:48:50;;;;;;;7.63;4.90;;;;;;;;;;5066517;28;20176;-72
2021/06/07 03:51:15;;;;;;;6.23;5.23;;;;;;;;;;5065846;28;20177;-72
2021/06/07 03:53:40;;;;;;;8.70;4.77;;;;;;;;;;5059199;28;20272;-71
2021/06/07 03:56:05;;;;;;;5.80;5.17;;;;;;;;;;5064399;28;20632;-71
2021/06/07 03:58:31;;;;;;;8.77;5.70;;;;;;;;;;5062924;28;20222;-71
2021/06/07 04:00:56;;;;;;;8.53;5.87;;;;;;;;;;5062649;28;20261;-71
2021/06/07 04:03:21;;;;;;;6.37;5.10;;;;;;;;;;5059340;28;20456;-72
2021/06/07 04:05:47;;;;;;;6.50;5.90;;;;;;;;;;5059974;28;20177;-72
2021/06/07 04:08:12;;;;;;;7.43;5.27;;;;;;;;;;5062472;28;20173;-72
2021/06/07 04:10:39;;;;;;;5.13;4.60;;;;;;;;;;5065098;28;20173;-72
2021/06/07 04:13:04;;;;;;;6.13;5.40;;;;;;;;;;5068647;28;20197;-71
2021/06/07 04:15:29;;;;;;;8.23;6.23;;;;;;;;;;5063657;28;20235;-71
2021/06/07 04:17:56;;;;;;;8.07;6.20;;;;;;;;;;5067603;28;20264;-72
2021/06/07 04:20:23;;;;;;;6.93;6.00;;;;;;;;;;5068628;28;20224;-72
2021/06/07 04:22:48;;;;;;;5.53;5.03;;;;;;;;;;5062982;28;20205;-71
2021/06/07 04:25:14;;;;;;;6.73;4.70;;;;;;;;;;5056805;28;20532;-71
2021/06/07 04:27:40;;;;;;;5.70;4.63;;;;;;;;;;5070161;28;20204;-71
2021/06/07 04:30:06;;;;;;;4.95;4.47;;;;;;;;;;5068303;28;20654;-71
2021/06/07 04:32:35;;;;;;;4.65;4.10;;;;;;;;;;5063557;28;20315;-71
2021/06/07 04:35:01;;;;;;;4.45;3.95;;;;;;;;;;5062915;28;20534;-70
2021/06/07 04:37:27;;;;;;;4.57;3.88;;;;;;;;;;5064430;28;20193;-70
2021/06/07 04:39:52;;;;;;;5.00;3.97;;;;;;;;;;5057563;28;20212;-72
2021/06/07 04:42:17;;;;;;;5.25;4.00;;;;;;;;;;5060801;28;20182;-71
2021/06/07 04:44:42;;;;;;;5.07;3.05;;;;;;;;;;5065557;28;20437;-70
2021/06/07 04:47:07;;;;;;;3.25;2.92;;;;;;;;;;5064910;28;20447;-70
2021/06/07 04:49:33;;;;;;;3.58;3.25;;;;;;;;;;5069226;28;20204;-70
2021/06/07 04:51:58;;;;;;;4.20;3.00;;;;;;;;;;5065719;28;20224;-71
2021/06/07 04:54:23;;;;;;;4.80;3.40;;;;;;;;;;5054702;28;20215;-71
2021/06/07 04:56:48;;;;;;;3.10;2.75;;;;;;;;;;5061635;28;20434;-71
2021/06/07 04:59:13;;;;;;;4.97;3.08;;;;;;;;;;5061680;28;20221;-71
2021/06/07 05:01:39;;;;;;;3.57;2.93;;;;;;;;;;5061491;28;20264;-71
2021/06/07 05:04:04;;;;;;;3.50;3.20;;;;;;;;;;5054627;28;20504;-72
2021/06/07 05:06:29;;;;;;;3.70;3.13;;;;;;;;;;5061075;28;20268;-71
2021/06/07 05:08:54;;;;;;;3.67;3.38;;;;;;;;;;5064225;28;20453;-71
2021/06/07 05:11:19;;;;;;;3.30;2.73;;;;;;;;;;5063814;28;20189;-71
2021/06/07 05:13:44;;;;;;;2.65;2.45;;;;;;;;;;5063693;28;21176;-71
2021/06/07 05:16:10;;;;;;;3.85;2.78;;;;;;;;;;5068794;28;20229;-71
2021/06/07 05:18:35;;;;;;;5.07;2.92;;;;;;;;;;5063080;28;20204;-71
2021/06/07 05:21:01;;;;;;;3.88;2.60;;;;;;;;;;5068493;28;20201;-71
2021/06/07 05:23:26;;;;;;;3.42;3.10;;;;;;;;;;5067633;28;20239;-70
2021/06/07 05:25:51;;;;;;;4.90;3.20;;;;;;;;;;5064828;28;20531;-71
2021/06/07 05:28:17;;;;;;;3.83;3.03;;;;;;;;;;5069172;28;20181;-70
2021/06/07 05:30:44;;;;;;;3.63;3.33;;;;;;;;;;5068421;28;20658;-71
2021/06/07 05:33:10;;;;;;;4.57;2.67;;;;;;;;;;5056172;28;20224;-70
2021/06/07 05:35:37;;;;;;;4.20;2.75;;;;;;;;;;5068860;28;20177;-70
2021/06/07 05:38:03;;;;;;;3.60;3.10;;;;;;;;;;5058720;28;20191;-70
2021/06/07 05:40:29;;;;;;;4.30;2.80;;;;;;;;;;5060041;28;66343;-70
2021/06/07 05:42:54;;;;;;;3.83;3.10;;;;;;;;;;5062871;28;20291;-70
2021/06/07 05:45:19;;;;;;;3.13;2.83;;;;;;;;;;5065871;28;20192;-72
2021/06/07 05:47:45;;;;;;;4.80;2.95;;;;;;;;;;5066194;28;20556;-71
2021/06/07 05:50:12;;;;;;;4.70;3.30;;;;;;;;;;5063560;28;20583;-70
2021/06/07 05:52:45;;;;;;;5.57;2.45;;;;;;;;;;5066963;28;20181;-70
2021/06/07 05:55:12;;;;;;;3.70;2.10;;;;;;;;;;5066089;28;20650;-71
2021/06/07 05:57:38;;;;;;;3.40;2.00;;;;;;;;;;5068382;28;20219;-71
2021/06/07 06:00:03;;;;;;;2.75;2.10;;;;;;;;;;5060285;28;20227;-70
2021/06/07 06:02:28;;;;;;;4.75;2.00;;;;;;;;;;5060900;28;20430;-70
2021/06/07 06:04:54;;;;;;;1.73;1.63;;;;;;;;;;5055033;28;20181;-70
2021/06/07 06:07:19;;;;;;;3.40;1.67;;;;;;;;;;5057396;28;20998;-70
2021/06/07 06:09:44;;;;;;;3.28;1.80;;;;;;;;;;5059457;28;20421;-71
2021/06/07 06:12:10;;;;;;;1.67;1.30;;;;;;;;;;5064569;28;20549;-71
2021/06/07 06:14:35;;;;;;;4.32;1.40;;;;;;;;;;5065856;28;20498;-71
2021/06/07 06:17:01;;;;;;;2.90;1.30;;;;;;;;;;5061774;28;20181;-70
2021/06/07 06:19:26;;;;;;;1.52;0.90;;;;;;;;;;5060827;28;20485;-71
2021/06/07 06:21:52;;;;;;;2.07;1.33;;;;;;;;;;5064448;28;20207;-71
2021/06/07 06:24:17;;;;;;;2.38;1.55;;;;;;;;;;5062927;28;20503;-71
2021/06/07 06:26:42;;;;;;;4.38;1.05;;;;;;;;;;5063269;28;20189;-71
2021/06/07 06:29:08;;;;;;;1.40;0.90;;;;;;;;;;5066161;28;20207;-71
2021/06/07 06:31:34;;;;;;;2.00;1.10;;;;;;;;;;5055456;28;20199;-70
2021/06/07 06:33:59;;;;;;;1.88;0.82;;;;;;;;;;5060297;28;20201;-71
2021/06/07 06:36:25;;;;;;;2.13;1.20;;;;;;;;;;5057615;28;20534;-72
2021/06/07 06:38:50;;;;;;;4.10;1.02;;;;;;;;;;5060473;28;20192;-70
2021/06/07 06:41:15;;;;;;;4.57;1.35;;;;;;;;;;5060804;28;20208;-71
2021/06/07 06:43:40;;;;;;;1.30;0.70;;;;;;;;;;5058430;28;20662;-71
2021/06/07 06:46:05;;;;;;;0.93;0.70;;;;;;;;;;5056203;28;20188;-71
2021/06/07 06:48:33;;;;;;;2.80;1.20;;;;;;;;;;5057360;28;21461;-71
2021/06/07 06:50:58;;;;;;;1.60;0.73;;;;;;;;;;5056598;28;20185;-71
2021/06/07 06:53:24;;;;;;;1.92;0.80;;;;;;;;;;5057570;28;20211;-71
2021/06/07 06:55:49;;;;;;;1.50;0.68;;;;;;;;;;5056684;28;20318;-71
2021/06/07 06:58:15;;;;;;;3.35;0.70;;;;;;;;;;5069967;28;20302;-71
2021/06/07 07:00:41;;;;;;;1.52;0.90;;;;;;;;;;5059054;28;20207;-72
2021/06/07 07:03:16;;;;;;;2.92;0.70;;;;;;;;;;5047876;28;20219;-71
2021/06/07 07:05:42;;;;;;;2.03;0.85;;;;;;;;;;5057595;28;20171;-71
2021/06/07 07:08:08;;;;;;;1.17;0.73;;;;;;;;;;5052892;28;20257;-73
2021/06/07 07:10:34;;;;;;;2.45;0.75;;;;;;;;;;5058496;28;20177;-72
2021/06/07 07:12:59;;;;;;;1.95;0.90;;;;;;;;;;5061304;28;20682;-72
2021/06/07 07:15:24;;;;;;;1.08;0.60;;;;;;;;;;5055928;28;20230;-73
2021/06/07 07:17:49;;;;;;;2.88;1.05;;;;;;;;;;5056403;28;20599;-72
2021/06/07 07:20:15;;;;;;;2.33;0.60;;;;;;;;;;5048599;28;20213;-73
2021/06/07 07:22:40;;;;;;;1.83;0.80;;;;;;;;;;5061052;28;20189;-73
2021/06/07 07:25:06;;;;;;;1.20;0.60;;;;;;;;;;5055099;28;20600;-73
2021/06/07 07:27:33;;;;;;;0.75;0.60;;;;;;;;;;5058973;28;20194;-73
2021/06/07 07:29:59;;;;;;;1.52;0.70;;;;;;;;;;5057976;28;20693;-73
2021/06/07 07:32:28;;;;;;;0.90;0.57;;;;;;;;;;5045254;28;20184;-73
2021/06/07 07:34:54;;;;;;;3.58;0.57;;;;;;;;;;5047760;28;20206;-73
2021/06/07 07:37:19;;;;;;;1.23;0.68;;;;;;;;;;5053696;28;20365;-73
2021/06/07 07:39:44;;;;;;;2.20;0.90;;;;;;;;;;5055117;28;20209;-74
2021/06/07 07:42:09;;;;;;;3.45;0.98;;;;;;;;;;5054496;28;20177;-73
2021/06/07 07:44:35;;;;;;;1.70;0.95;;;;;;;;;;5050956;28;20208;-73
2021/06/07 07:47:02;;;;;;;2.67;0.80;;;;;;;;;;5054304;28;20184;-73
2021/06/07 07:49:27;;;;;;;2.78;0.85;;;;;;;;;;5054479;28;20220;-73
2021/06/07 07:51:52;;;;;;;1.57;0.97;;;;;;;;;;5054610;28;20178;-73
2021/06/07 07:54:17;;;;;;;3.60;0.95;;;;;;;;;;5061319;28;20792;-73
2021/06/07 07:56:43;;;;;;;0.82;0.60;;;;;;;;;;5055575;28;20238;-73
2021/06/07 07:59:08;;;;;;;2.15;1.35;;;;;;;;;;5051699;28;20186;-73
2021/06/07 08:01:33;;;;;;;2.03;1.02;;;;;;;;;;5054186;28;20234;-73
2021/06/07 08:04:00;;;;;;;2.45;1.30;;;;;;;;;;5056472;28;20601;-73
2021/06/07 08:06:26;;;;;;;2.45;1.00;;;;;;;;;;5056295;28;20211;-73
2021/06/07 08:08:51;;;;;;;1.67;0.85;;;;;;;;;;5053967;28;20839;-73
2021/06/07 08:11:16;;;;;;;1.60;0.70;;;;;;;;;;5051230;28;20173;-74
2021/06/07 08:13:41;;;;;;;1.97;1.03;;;;;;;;;;5054533;28;20453;-73
2021/06/07 08:16:07;;;;;;;1.47;0.97;;;;;;;;;;5057611;28;20509;-74
2021/06/07 08:18:32;;;;;;;2.72;1.17;;;;;;;;;;5047701;28;20511;-72
2021/06/07 08:20:57;;;;;;;4.97;2.38;;;;;;;;;;5055510;28;20201;-72
2021/06/07 08:23:23;;;;;;;2.35;1.08;;;;;;;;;;5048443;28;20198;-74
2021/06/07 08:25:48;;;;;;;3.25;1.38;;;;;;;;;;5061028;28;20235;-73
2021/06/07 08:28:13;;;;;;;2.65;1.20;;;;;;;;;;5061739;28;20255;-73
2021/06/07 08:30:39;;;;;;;2.65;1.27;;;;;;;;;;5055273;28;20694;-72
2021/06/07 08:33:04;;;;;;;2.03;1.17;;;;;;;;;;5052267;28;20704;-73
2021/06/07 08:35:29;;;;;;;3.33;1.30;;;;;;;;;;5054579;28;20671;-72
2021/06/07 08:37:55;;;;;;;2.17;1.30;;;;;;;;;;5050757;28;20183;-72
2021/06/07 08:40:20;;;;;;;2.50;1.30;;;;;;;;;;5060313;28;20593;-73
2021/06/07 08:42:45;;;;;;;3.17;1.08;;;;;;;;;;5058173;28;20201;-72
2021/06/07 08:45:12;;;;;;;1.20;0.90;;;;;;;;;;5051837;28;20177;-73
2021/06/07 08:47:41;;;;;;;1.63;1.23;;;;;;;;;;5054065;28;20195;-74
2021/06/07 08:50:06;;;;;;;2.55;1.13;;;;;;;;;;5056522;28;20189;-73
2021/06/07 08:52:31;;;;;;;2.58;1.20;;;;;;;;;;5059706;28;20207;-73
2021/06/07 08:54:57;;;;;;;1.73;1.20;;;;;;;;;;5052090;28;20193;-72
2021/06/07 08:57:22;;;;;;;2.90;1.30;;;;;;;;;;5052742;28;20433;-73
2021/06/07 08:59:47;;;;;;;2.30;1.10;;;;;;;;;;5051794;28;20464;-73
2021/06/07 09:02:12;;;;;;;2.30;1.33;;;;;;;;;;5055654;28;20181;-72
2021/06/07 09:04:48;;;;;;;4.45;1.63;;;;;;;;;;5055429;28;20455;-72
2021/06/07 09:07:13;;;;;;;3.05;1.40;;;;;;;;;;5057771;28;20229;-73
2021/06/07 09:09:38;;;;;;;2.58;1.55;;;;;;;;;;5061770;28;20178;-72
2021/06/07 09:12:08;;;;;;;2.78;1.20;;;;;;;;;;5056079;28;20194;-73
2021/06/07 09:14:37;;;;;;;2.33;1.35;;;;;;;;;;5055168;28;20569;-73
2021/06/07 09:17:15;;;;;;;6.10;1.40;;;;;;;;;;5059813;28;20205;-73
2021/06/07 09:19:40;;;;;;;3.08;1.20;;;;;;;;;;5049441;28;20222;-73
2021/06/07 09:22:22;;;;;;;2.67;1.97;;;;;;;;;;5054208;28;20181;-73
2021/06/07 09:25:05;;;;;;;2.13;1.33;;;;;;;;;;5056684;28;20203;-73
2021/06/07 09:27:31;;;;;;;1.67;1.55;;;;;;;;;;5064236;28;20833;-73
2021/06/07 09:29:56;;;;;;;1.75;1.20;;;;;;;;;;5071527;28;20188;-72
2021/06/07 09:32:22;;;;;;;4.30;1.40;;;;;;;;;;5054288;28;20920;-72
2021/06/07 09:35:03;;;;;;;3.40;1.23;;;;;;;;;;5061185;28;20218;-71
2021/06/07 09:37:28;;;;;;;3.10;1.50;;;;;;;;;;5053295;28;20178;-72
2021/06/07 09:40:13;;;;;;;2.43;1.63;;;;;;;;;;5057054;28;20220;-72
2021/06/07 09:42:53;;;;;;;1.60;1.15;;;;;;;;;;5058030;28;20436;-73
2021/06/07 09:45:33;;;;;;;2.65;1.38;;;;;;;;;;5061347;28;20185;-73
2021/06/07 09:48:07;;;;;;;3.17;1.20;;;;;;;;;;5060001;28;20173;-72
2021/06/07 09:50:32;;;;;;;1.70;1.08;;;;;;;;;;5053769;28;20787;-73
2021/06/07 09:52:58;;;;;;;3.63;1.20;;;;;;;;;;5050312;28;20205;-73
2021/06/07 09:55:24;;;;;;;2.30;1.13;;;;;;;;;;5053586;28;20669;-73
2021/06/07 09:57:51;;;;;;;1.60;1.20;;;;;;;;;;5054797;28;20188;-73
2021/06/07 10:00:31;;;;;;;2.88;1.10;;;;;;;;;;5059947;28;20200;-73
2021/06/07 10:02:56;;;;;;;4.60;1.33;;;;;;;;;;5053953;28;20197;-73
2021/06/07 10:05:31;;;;;;;2.83;1.00;;;;;;;;;;5052566;28;20183;-74
2021/06/07 10:07:56;;;;;;;3.85;1.30;;;;;;;;;;5057039;28;20691;-73
2021/06/07 10:10:23;;;;;;;3.83;1.13;;;;;;;;;;5053425;28;20189;-73
2021/06/07 10:12:48;;;;;;;4.00;1.10;;;;;;;;;;5050212;28;20210;-73
2021/06/07 10:15:29;;;;;;;2.85;1.30;;;;;;;;;;5051255;28;20231;-73
2021/06/07 10:17:54;;;;;;;2.65;1.13;;;;;;;;;;5052104;28;20177;-74
2021/06/07 10:22:44;;;;;;;1.80;1.30;;;;;;;;;;5050921;28;20723;-73
2021/06/07 10:25:10;;;;;;;3.43;2.00;;;;;;;;;;5055154;28;20204;-73
2021/06/07 10:27:36;;;;;;;3.85;1.05;;;;;;;;;;5054660;28;20420;-71
2021/06/07 10:30:02;;;;;;;1.38;1.08;;;;;;;;;;5049000;28;20185;-71
2021/06/07 10:32:29;;;;;;;1.85;1.08;;;;;;;;;;5068692;28;20188;-72
2021/06/07 10:34:59;;;;;;;2.45;1.20;;;;;;;;;;5054419;28;20182;-72
2021/06/07 10:37:26;;;;;;;4.00;1.17;;;;;;;;;;5053134;28;20207;-72
2021/06/07 10:39:51;;;;;;;1.67;1.45;;;;;;;;;;5047915;28;20197;-72
2021/06/07 10:42:18;;;;;;;2.70;1.10;;;;;;;;;;5059997;28;20188;-72
2021/06/07 10:44:54;;;;;;;3.00;1.27;;;;;;;;;;5051256;28;20250;-72
2021/06/07 10:47:24;;;;;;;2.13;1.10;;;;;;;;;;5052429;28;20184;-72
2021/06/07 10:49:55;;;;;;;2.60;1.35;;;;;;;;;;5054240;28;20185;-73
2021/06/07 10:52:22;;;;;;;3.42;1.52;;;;;;;;;;5053021;28;20243;-73
2021/06/07 10:54:58;;;;;;;2.05;1.20;;;;;;;;;;5049708;28;20177;-73
2021/06/07 10:57:26;;;;;;;2.17;1.20;;;;;;;;;;5049523;28;20173;-73
2021/06/07 10:59:52;;;;;;;2.58;0.88;;;;;;;;;;5050728;28;20227;-74
2021/06/07 11:02:18;;;;;;;2.35;1.40;;;;;;;;;;5051937;28;20187;-73
2021/06/07 11:04:44;;;;;;;2.15;1.15;;;;;;;;;;5050088;28;20189;-74
2021/06/07 11:07:09;;;;;;;1.25;1.15;;;;;;;;;;5051690;28;20708;-74
2021/06/07 11:09:34;;;;;;;3.35;1.35;;;;;;;;;;5059516;28;20565;-74
2021/06/07 11:12:02;;;;;;;3.47;1.07;;;;;;;;;;5063693;28;20193;-73
2021/06/07 11:14:28;;;;;;;1.70;1.25;;;;;;;;;;5051213;28;20860;-72
2021/06/07 11:16:53;;;;;;;2.70;1.30;;;;;;;;;;5053329;28;20184;-72
2021/06/07 11:19:18;;;;;;;2.03;1.70;;;;;;;;;;5058233;28;20178;-72
2021/06/07 11:21:54;;;;;;;4.28;1.70;;;;;;;;;;5050018;28;20556;-72
2021/06/07 11:24:26;;;;;;;2.05;1.30;;;;;;;;;;5050696;28;20223;-72
2021/06/07 11:26:51;;;;;;;1.90;1.10;;;;;;;;;;5055021;28;20231;-72
2021/06/07 11:29:17;;;;;;;1.88;1.65;;;;;;;;;;5056041;28;20189;-72
2021/06/07 11:32:09;;;;;;;2.78;1.15;;;;;;;;;;5052191;28;20177;-72
2021/06/07 11:34:41;;;;;;;2.28;1.60;;;;;;;;;;5049006;28;20209;-73
2021/06/07 11:37:07;;;;;;;3.55;1.38;;;;;;;;;;5053687;28;20173;-72
2021/06/07 11:39:41;;;;;;;2.33;1.42;;;;;;;;;;5054491;28;20208;-72
2021/06/07 11:42:07;;;;;;;1.20;1.10;;;;;;;;;;5058357;28;20194;-72
2021/06/07 11:44:52;;;;;;;2.50;1.30;;;;;;;;;;5052762;28;20205;-72
2021/06/07 11:47:17;;;;;;;2.35;1.20;;;;;;;;;;5051014;28;20184;-73
2021/06/07 11:49:57;;;;;;;1.98;1.33;;;;;;;;;;5050068;28;20374;-72
2021/06/07 11:52:32;;;;;;;4.10;1.00;;;;;;;;;;5048172;28;20622;-72
2021/06/07 11:54:58;;;;;;;2.50;1.25;;;;;;;;;;5049708;28;20204;-73
2021/06/07 11:57:23;;;;;;;1.40;1.15;;;;;;;;;;5055750;28;20234;-73
2021/06/07 11:59:53;;;;;;;2.67;1.10;;;;;;;;;;5051597;28;20217;-72
2021/06/07 12:02:19;;;;;;;2.55;1.50;;;;;;;;;;5055147;28;20230;-72
2021/06/07 12:04:45;;;;;;;2.00;1.33;;;;;;;;;;5048739;28;20193;-73
2021/06/07 12:07:11;;;;;;;1.67;1.05;;;;;;;;;;5056605;28;20231;-72
2021/06/07 12:09:41;;;;;;;2.88;0.82;;;;;;;;;;5062663;28;20285;-73
2021/06/07 12:12:06;;;;;;;2.40;1.25;;;;;;;;;;5057653;28;20231;-73
2021/06/07 12:14:33;;;;;;;1.45;1.15;;;;;;;;;;5057129;28;20200;-72
2021/06/07 12:17:05;;;;;;;4.93;1.10;;;;;;;;;;5064064;28;20184;-74
2021/06/07 12:19:37;;;;;;;1.65;1.02;;;;;;;;;;5060310;28;20214;-72
2021/06/07 12:22:02;;;;;;;3.10;1.25;;;;;;;;;;5057146;28;21791;-73
2021/06/07 12:24:29;;;;;;;3.60;1.50;;;;;;;;;;5053468;28;20200;-72
2021/06/07 12:29:43;;;;;;;1.73;1.27;;;;;;;;;;5054524;28;20195;-72
2021/06/07 12:32:13;;;;;;;3.33;1.20;;;;;;;;;;5057917;28;20177;-73
2021/06/07 12:34:57;;;;;;;2.63;1.05;;;;;;;;;;5063319;28;20278;-73
2021/06/07 12:37:30;;;;;;;2.20;1.02;;;;;;;;;;5054581;28;20205;-73
2021/06/07 12:40:12;;;;;;;3.47;1.40;;;;;;;;;;5063036;28;20233;-72
2021/06/07 12:42:37;;;;;;;3.17;1.20;;;;;;;;;;5058141;28;20227;-72
2021/06/07 12:45:09;;;;;;;2.28;1.50;;;;;;;;;;5060173;28;20557;-72
2021/06/07 12:47:35;;;;;;;3.20;0.73;;;;;;;;;;5069766;28;20204;-73
2021/06/07 12:50:07;;;;;;;2.30;1.20;;;;;;;;;;5064043;28;20647;-72
2021/06/07 12:52:32;;;;;;;2.75;1.00;;;;;;;;;;5053874;28;20191;-72
2021/06/07 12:54:57;;;;;;;2.55;1.10;;;;;;;;;;5052413;28;20182;-72
2021/06/07 12:57:27;;;;;;;1.20;0.90;;;;;;;;;;5054923;28;20647;-73
2021/06/07 12:59:52;;;;;;;4.95;0.93;;;;;;;;;;5056371;28;20326;-73
2021/06/07 13:02:29;;;;;;;2.07;0.93;;;;;;;;;;5064252;28;20655;-72
2021/06/07 13:04:55;;;;;;;1.77;0.98;;;;;;;;;;5051553;28;20195;-73
2021/06/07 13:07:20;;;;;;;1.77;0.90;;;;;;;;;;5051972;28;20177;-73
2021/06/07 13:09:49;;;;;;;2.13;0.70;;;;;;;;;;5059571;28;20364;-72
2021/06/07 13:12:21;;;;;;;2.13;0.77;;;;;;;;;;5058575;28;20188;-73
2021/06/07 13:14:50;;;;;;;2.40;1.10;;;;;;;;;;5050152;28;20222;-74
2021/06/07 13:17:15;;;;;;;3.03;0.98;;;;;;;;;;5060446;28;20670;-72
2021/06/07 13:19:45;;;;;;;1.93;0.73;;;;;;;;;;5058382;28;20220;-73
2021/06/07 13:22:12;;;;;;;2.72;1.20;;;;;;;;;;5051478;28;20652;-73
2021/06/07 13:24:38;;;;;;;1.48;0.95;;;;;;;;;;5055745;28;20196;-73
2021/06/07 13:27:20;;;;;;;2.55;0.88;;;;;;;;;;5059134;28;20184;-73
2021/06/07 13:29:45;;;;;;;1.25;0.73;;;;;;;;;;5063068;28;20212;-71
2021/06/07 13:32:20;;;;;;;1.92;0.75;;;;;;;;;;5054172;28;20184;-71
2021/06/07 13:34:48;;;;;;;1.25;0.70;;;;;;;;;;5051677;28;20195;-71
2021/06/07 13:37:19;;;;;;;2.47;1.10;;;;;;;;;;5058139;28;20173;-72
2021/06/07 13:39:45;;;;;;;2.75;0.90;;;;;;;;;;5056933;28;20201;-72
2021/06/07 13:42:11;;;;;;;1.30;0.75;;;;;;;;;;5055693;28;20177;-72
2021/06/07 13:44:47;;;;;;;1.60;0.90;;;;;;;;;;5051467;28;20231;-71
2021/06/07 13:47:17;;;;;;;1.73;1.00;;;;;;;;;;5056444;28;20233;-70
2021/06/07 13:49:42;;;;;;;1.50;0.90;;;;;;;;;;5071298;28;20238;-70
2021/06/07 13:52:14;;;;;;;2.53;1.20;;;;;;;;;;5052609;28;20184;-70
2021/06/07 13:54:52;;;;;;;2.88;0.90;;;;;;;;;;5052158;28;20497;-71
2021/06/07 13:57:17;;;;;;;4.22;0.90;;;;;;;;;;5052089;28;20192;-72
2021/06/07 13:59:42;;;;;;;1.30;0.90;;;;;;;;;;5066178;28;20189;-71
2021/06/07 14:02:07;;;;;;;4.30;1.52;;;;;;;;;;5081759;28;20614;-70
2021/06/07 14:04:33;;;;;;;3.80;1.40;;;;;;;;;;5074662;28;20256;-71
2021/06/07 14:06:58;;;;;;;2.87;1.17;;;;;;;;;;5055775;28;20262;-70
2021/06/07 14:09:29;;;;;;;2.43;1.00;;;;;;;;;;5057739;28;20224;-71
2021/06/07 14:11:54;;;;;;;2.10;1.00;;;;;;;;;;5062538;28;20169;-72
2021/06/07 14:14:22;;;;;;;5.47;1.30;;;;;;;;;;5051594;28;20698;-71
2021/06/07 14:16:47;;;;;;;3.15;1.13;;;;;;;;;;5060513;28;20174;-71
2021/06/07 14:19:12;;;;;;;2.20;0.93;;;;;;;;;;5065063;28;20176;-70
2021/06/07 14:24:38;;;;;;;2.80;0.90;;;;;;;;;;5044843;28;20208;-71
2021/06/07 14:27:07;;;;;;;1.98;1.08;;;;;;;;;;5055518;28;20546;-71
2021/06/07 14:29:35;;;;;;;2.67;1.08;;;;;;;;;;5063063;28;20184;-70
2021/06/07 14:32:00;;;;;;;1.27;1.10;;;;;;;;;;5060002;28;20180;-71
2021/06/07 14:34:25;;;;;;;2.13;0.90;;;;;;;;;;5058647;28;20566;-71
2021/06/07 14:36:51;;;;;;;2.03;0.90;;;;;;;;;;5065354;28;20173;-73
2021/06/07 14:39:16;;;;;;;2.83;0.80;;;;;;;;;;5060841;28;21140;-71
2021/06/07 14:41:41;;;;;;;1.50;0.80;;;;;;;;;;5069728;28;20335;-71
2021/06/07 14:44:06;;;;;;;2.72;1.10;;;;;;;;;;5062582;28;20201;-71
2021/06/07 14:46:32;;;;;;;3.97;1.30;;;;;;;;;;5069094;28;20177;-71
2021/06/07 14:48:57;;;;;;;2.40;0.97;;;;;;;;;;5071912;28;20914;-72